Domingo Faustino Sarmiento Airport


Codes: SANU/UAQ
Name: Domingo Faustino Sarmiento Airport
City: San Juan
Country: Argentina
Elevation: 1958 ft.

Photos at Domingo Faustino Sarmiento Airport


   Photos courtesy of SpottingLog. You can add your own sightings and photos by signing up for a free trial today.



No photos found.

Weather at Domingo Faustino Sarmiento Airport


Time (UTC)DescriptionTempratureWindCloud coverageVisibilityPressureHumidity
17-Jun-2024 06:00Clear Sky12°C4 mph, N2%10000m1013hPa48%
17-Jun-2024 09:00Clear Sky11°C2 mph, N1%10000m1011hPa53%
17-Jun-2024 12:00Clear Sky10°C4 mph, N3%10000m1010hPa56%
17-Jun-2024 15:00Broken Clouds17°C7 mph, N56%10000m1009hPa38%
17-Jun-2024 18:00Scattered Clouds22°C13 mph, N38%10000m1003hPa22%
17-Jun-2024 21:00Clear Sky20°C4 mph, NE0%10000m1001hPa21%
18-Jun-2024 00:00Clear Sky15°C2 mph, S0%10000m1003hPa31%
18-Jun-2024 03:00Clear Sky15°C4 mph, NE8%10000m1003hPa26%
18-Jun-2024 06:00Clear Sky16°C9 mph, N4%10000m1002hPa20%
18-Jun-2024 09:00Clear Sky13°C7 mph, NE0%10000m1002hPa24%
18-Jun-2024 12:00Clear Sky15°C7 mph, NE0%10000m1003hPa15%
18-Jun-2024 15:00Clear Sky23°C16 mph, NW0%10000m1002hPa8%
18-Jun-2024 18:00Clear Sky26°C36 mph, NW0%10000m999hPa6%
18-Jun-2024 21:00Clear Sky23°C34 mph, NW0%10000m1001hPa9%
19-Jun-2024 00:00Clear Sky14°C16 mph, S0%10000m1007hPa33%
19-Jun-2024 03:00Clear Sky13°C11 mph, S0%10000m1010hPa39%
19-Jun-2024 06:00Clear Sky11°C9 mph, SE0%10000m1011hPa52%
19-Jun-2024 09:00Clear Sky9°C9 mph, S0%10000m1012hPa56%
19-Jun-2024 12:00Clear Sky9°C7 mph, S0%10000m1014hPa66%
19-Jun-2024 15:00Clear Sky14°C4 mph, S0%10000m1014hPa43%
19-Jun-2024 18:00Clear Sky17°C16 mph, S0%10000m1012hPa33%
19-Jun-2024 21:00Clear Sky16°C13 mph, S0%10000m1013hPa36%
20-Jun-2024 00:00Clear Sky13°C7 mph, S0%10000m1015hPa46%
20-Jun-2024 03:00Scattered Clouds11°C7 mph, SE33%10000m1016hPa54%
20-Jun-2024 06:00Few Clouds9°C4 mph, S17%10000m1015hPa61%
20-Jun-2024 09:00Clear Sky8°C7 mph, S0%10000m1014hPa62%
20-Jun-2024 12:00Clear Sky7°C2 mph, S0%10000m1014hPa63%
20-Jun-2024 15:00Clear Sky12°C0 mph, N1%10000m1011hPa45%
20-Jun-2024 18:00Few Clouds17°C4 mph, NE13%10000m1006hPa38%
20-Jun-2024 21:00Broken Clouds18°C4 mph, E66%10000m1004hPa36%
21-Jun-2024 00:00Scattered Clouds12°C4 mph, E34%10000m1005hPa46%
21-Jun-2024 03:00Clear Sky11°C2 mph, NW4%10000m1004hPa51%
21-Jun-2024 06:00Clear Sky10°C2 mph, N4%10000m1003hPa73%
21-Jun-2024 09:00Scattered Clouds8°C4 mph, SE46%10000m1003hPa78%
21-Jun-2024 12:00Scattered Clouds8°C4 mph, S26%10000m1003hPa75%
21-Jun-2024 15:00Clear Sky13°C2 mph, SE0%10000m1003hPa57%
21-Jun-2024 18:00Clear Sky18°C9 mph, SE1%10000m999hPa38%
21-Jun-2024 21:00Clear Sky18°C16 mph, SE0%10000m999hPa34%
22-Jun-2024 00:00Scattered Clouds14°C11 mph, S27%10000m1004hPa48%
22-Jun-2024 03:00Scattered Clouds12°C18 mph, S39%10000m1008hPa65%